Time;durP1;ratioP1;P1;durP2;ratioP2;P2;SDS_P1;SDS_P2;PMS_P1;PMS_P2;Temp;Humidity;BMP_temperature;BMP_pressure;BME280_temperature;BME280_humidity;BME280_pressure;Samples;Min_cycle;Max_cycle;Signal;HPM_P1;HPM_P2
2023/01/04 00:10:15;;;;;;;16.10;6.30;;;;;;;5.30;85.12;101454.51;652057;1298;138386;-82
2023/01/04 00:25:18;;;;;;;17.00;7.20;;;;;;;5.06;86.13;101448.67;650021;1310;139553;-81
2023/01/04 00:40:21;;;;;;;24.20;9.70;;;;;;;4.88;86.32;101445.88;649268;1310;137878;-81
2023/01/04 00:55:25;;;;;;;40.70;14.00;;;;;;;4.70;85.55;101457.06;649425;1307;140272;-79
2023/01/04 01:10:29;;;;;;;19.80;9.90;;;;;;;4.22;87.99;101476.11;662074;1304;139985;-80
2023/01/04 01:25:33;;;;;;;134.40;57.20;;;;;;;3.74;91.41;101476.69;663479;1295;138810;-80
2023/01/04 01:40:41;;;;;;;20.70;10.90;;;;;;;3.66;91.13;101471.33;662331;1295;137596;-81
2023/01/04 01:55:48;;;;;;;27.50;14.70;;;;;;;3.53;91.44;101456.44;661863;1310;138786;-80
2023/01/04 02:10:51;;;;;;;17.60;7.90;;;;;;;3.32;92.24;101429.05;661742;1296;139139;-80
2023/01/04 02:26:37;;;;;;;21.00;10.40;;;;;;;3.12;93.18;101413.24;663277;1294;138907;-80
2023/01/04 02:41:49;;;;;;;27.70;13.90;;;;;;;3.18;94.12;101408.14;661765;1301;138767;-80
2023/01/04 02:57:18;;;;;;;29.60;11.80;;;;;;;3.61;90.45;101406.81;661721;1301;139748;-80
2023/01/04 03:12:31;;;;;;;21.80;10.00;;;;;;;3.52;91.49;101396.95;661788;1308;140307;-80
2023/01/04 03:58:30;;;;;;;18.50;10.00;;;;;;;3.24;92.15;101350.36;661690;1309;139504;-82
2023/01/04 04:13:34;;;;;;;22.30;11.10;;;;;;;2.72;94.28;101349.44;663372;1293;140549;-81
2023/01/04 04:28:38;;;;;;;34.40;16.10;;;;;;;2.33;95.90;101353.32;661334;1310;138871;-82
2023/01/04 04:43:41;;;;;;;23.20;10.40;;;;;;;2.26;95.30;101326.13;662990;1302;138502;-82
2023/01/04 04:58:44;;;;;;;29.90;14.40;;;;;;;2.27;95.33;101305.55;661512;1310;140046;-82
2023/01/04 05:13:47;;;;;;;28.20;13.80;;;;;;;2.17;95.86;101286.05;661122;1304;139367;-80
2023/01/04 05:28:51;;;;;;;25.80;13.30;;;;;;;2.47;94.22;101256.44;663236;1300;139592;-81
2023/01/04 05:43:56;;;;;;;23.60;11.70;;;;;;;2.63;93.22;101234.92;661365;1295;139458;-80
2023/01/04 05:58:59;;;;;;;26.10;12.80;;;;;;;2.69;92.58;101235.55;661353;1296;138816;-81
2023/01/04 06:14:02;;;;;;;33.40;15.00;;;;;;;2.84;92.12;101229.77;661502;1302;139516;-81
2023/01/04 06:29:06;;;;;;;41.00;20.10;;;;;;;2.90;92.17;101199.28;663574;1302;138590;-81
2023/01/04 06:44:09;;;;;;;31.90;17.00;;;;;;;2.72;93.02;101168.39;661743;1308;138543;-81
2023/01/04 06:59:13;;;;;;;35.80;13.20;;;;;;;2.49;95.49;101169.67;663336;1295;138438;-82
2023/01/04 07:14:16;;;;;;;34.40;15.40;;;;;;;2.58;95.81;101165.19;661777;1305;138657;-81
2023/01/04 07:29:21;;;;;;;31.50;14.90;;;;;;;2.67;96.46;101135.08;663307;1294;139112;-81
2023/01/04 07:44:26;;;;;;;27.80;13.90;;;;;;;2.86;97.29;101106.49;661518;1310;139656;-81
2023/01/04 07:59:30;;;;;;;34.40;14.90;;;;;;;2.99;98.07;101098.48;661871;1304;138555;-79
2023/01/04 08:14:33;;;;;;;182.50;58.00;;;;;;;3.24;97.50;101072.16;661704;1285;138836;-81
2023/01/04 08:29:37;;;;;;;31.60;12.80;;;;;;;3.46;96.55;101010.83;661968;1298;139284;-80
2023/01/04 08:44:40;;;;;;;27.00;12.70;;;;;;;3.98;95.26;100996.05;663384;1302;139240;-81
2023/01/04 08:59:44;;;;;;;50.20;17.60;;;;;;;4.25;94.37;100959.07;661638;1310;139195;-81
2023/01/04 09:14:47;;;;;;;36.50;19.30;;;;;;;4.33;95.18;100914.52;661912;1302;138753;-81
2023/01/04 09:29:51;;;;;;;25.60;14.00;;;;;;;4.58;96.56;100889.45;661934;1310;138588;-81
2023/01/04 09:45:00;;;;;;;41.40;21.40;;;;;;;4.88;97.67;100869.64;661799;1310;139800;-81
2023/01/04 10:00:28;;;;;;;43.80;22.90;;;;;;;5.07;97.96;100825.09;661965;1310;139602;-82
2023/01/04 10:15:43;;;;;;;53.60;28.70;;;;;;;5.17;98.72;100766.79;661855;1295;140353;-81
2023/01/04 10:30:49;;;;;;;54.80;29.20;;;;;;;5.24;97.78;100720.27;661745;1304;139168;-81
2023/01/04 10:46:05;;;;;;;48.80;27.10;;;;;;;5.33;97.76;100676.36;661676;1306;139257;-82
2023/01/04 11:01:16;;;;;;;48.40;25.70;;;;;;;5.40;97.35;100626.34;663182;1294;140017;-82
2023/01/04 11:16:20;;;;;;;34.50;20.30;;;;;;;5.55;96.31;100592.14;663484;1302;139051;-80
2023/01/04 11:31:31;;;;;;;42.60;21.60;;;;;;;5.81;95.60;100532.53;661624;1301;139618;-82
2023/01/04 11:46:34;;;;;;;59.60;29.50;;;;;;;5.86;94.84;100487.23;663235;1288;139517;-82
2023/01/04 12:01:48;;;;;;;44.90;21.20;;;;;;;6.02;93.74;100440.98;661564;1310;139535;-82
2023/01/04 12:17:03;;;;;;;29.60;16.90;;;;;;;6.22;92.69;100391.32;661646;1297;139976;-82
2023/01/04 12:32:06;;;;;;;33.20;16.30;;;;;;;6.49;90.99;100325.52;661598;1310;140564;-82
2023/01/04 13:02:46;;;;;;;40.30;20.70;;;;;;;6.52;89.70;100256.55;661791;1298;140098;-81
2023/01/04 13:17:52;;;;;;;37.30;19.40;;;;;;;6.44;91.98;100208.82;663108;1291;138585;-81
2023/01/04 13:32:55;;;;;;;32.00;16.30;;;;;;;6.30;95.20;100128.14;661550;1291;139703;-82
2023/01/04 13:48:21;;;;;;;53.20;23.80;;;;;;;6.28;97.70;100098.46;663276;1298;139415;-81
2023/01/04 14:03:30;;;;;;;39.60;19.80;;;;;;;6.26;99.84;100035.58;661119;1310;139464;-80
2023/01/04 14:18:33;;;;;;;36.70;21.40;;;;;;;6.33;100.00;99996.41;661250;1300;139929;-79
2023/01/04 14:33:39;;;;;;;34.60;18.10;;;;;;;6.42;99.97;99953.18;661163;1304;140354;-81
2023/01/04 14:48:43;;;;;;;29.90;14.00;;;;;;;6.44;100.00;99928.78;661276;1307;138577;-81
2023/01/04 15:03:46;;;;;;;28.70;14.30;;;;;;;6.52;100.00;99897.94;661178;1307;140132;-80
2023/01/04 15:18:49;;;;;;;35.10;18.70;;;;;;;6.57;100.00;99866.45;661238;1305;139331;-79
2023/01/04 15:33:53;;;;;;;29.40;16.70;;;;;;;6.52;100.00;99819.77;661137;1290;139579;-80
2023/01/04 15:48:56;;;;;;;31.20;17.40;;;;;;;6.57;100.00;99771.94;661389;1304;140766;-79
2023/01/04 16:04:01;;;;;;;26.00;13.80;;;;;;;6.61;100.00;99740.30;661203;1298;140321;-78
2023/01/04 16:19:04;;;;;;;22.10;13.60;;;;;;;6.68;100.00;99708.00;661041;1310;138412;-78
2023/01/04 16:34:11;;;;;;;21.30;12.70;;;;;;;6.85;100.00;99665.02;661279;1310;139300;-77
2023/01/04 16:49:16;;;;;;;27.40;14.40;;;;;;;7.04;100.00;99623.34;661536;1310;140171;-78
2023/01/04 17:04:19;;;;;;;21.70;13.70;;;;;;;7.34;100.00;99600.10;661366;1311;138687;-79
2023/01/04 17:19:45;;;;;;;23.90;14.40;;;;;;;7.19;100.00;99554.75;661653;1294;138713;-79
2023/01/04 17:34:50;;;;;;;25.00;14.40;;;;;;;7.25;100.00;99516.67;661528;1302;138752;-77
2023/01/04 17:49:53;;;;;;;71.00;31.80;;;;;;;7.39;100.00;99485.58;661238;1305;139840;-78
2023/01/04 18:04:58;;;;;;;20.30;12.40;;;;;;;7.54;100.00;99444.64;661207;1282;138750;-77
2023/01/04 18:20:02;;;;;;;22.20;12.60;;;;;;;7.61;100.00;99419.39;661360;1311;139533;-78
2023/01/04 18:35:06;;;;;;;25.60;13.90;;;;;;;7.89;100.00;99393.09;661060;1312;139599;-78
2023/01/04 18:50:09;;;;;;;17.00;9.20;;;;;;;8.17;100.00;99369.61;661025;1301;138948;-79
2023/01/04 19:05:17;;;;;;;14.30;10.40;;;;;;;8.38;100.00;99337.37;661094;1311;138266;-79
2023/01/04 19:20:21;;;;;;;34.20;15.00;;;;;;;8.57;100.00;99318.27;661330;1297;138804;-78
2023/01/04 19:35:24;;;;;;;20.20;11.50;;;;;;;8.70;100.00;99307.56;661427;1310;138440;-79
2023/01/04 19:50:28;;;;;;;16.90;10.60;;;;;;;8.88;100.00;99292.48;662625;1293;165342;-78
2023/01/04 20:05:33;;;;;;;19.40;12.70;;;;;;;8.97;100.00;99275.14;661247;1310;139815;-78
2023/01/04 20:20:40;;;;;;;32.20;14.80;;;;;;;9.03;100.00;99266.54;662480;1282;139988;-78
2023/01/04 20:35:44;;;;;;;20.90;12.00;;;;;;;9.15;100.00;99256.68;661228;1297;139344;-79
2023/01/04 20:50:48;;;;;;;25.40;13.40;;;;;;;9.27;100.00;99235.74;661208;1289;138532;-79
2023/01/04 21:05:52;;;;;;;23.00;12.30;;;;;;;9.20;100.00;99213.09;661524;1305;139079;-78
2023/01/04 21:20:56;;;;;;;19.80;12.20;;;;;;;9.35;100.00;99185.61;661011;1298;138593;-79
2023/01/04 21:36:08;;;;;;;31.00;13.60;;;;;;;9.24;100.00;99161.60;661390;1299;138416;-78
2023/01/04 21:51:13;;;;;;;18.70;12.40;;;;;;;9.32;100.00;99148.08;660697;1310;138944;-79
2023/01/04 22:06:19;;;;;;;28.10;12.60;;;;;;;9.43;100.00;99113.94;660891;1304;140207;-78
2023/01/04 22:21:22;;;;;;;29.20;15.50;;;;;;;9.60;100.00;99098.78;660507;1302;140117;-78
2023/01/04 22:36:26;;;;;;;46.90;23.30;;;;;;;9.76;100.00;99088.95;661009;1308;139709;-79
2023/01/04 22:51:30;;;;;;;8.70;6.20;;;;;;;9.81;100.00;99066.08;660977;1304;139474;-80
2023/01/04 23:06:33;;;;;;;11.90;8.10;;;;;;;10.36;100.00;99052.43;662695;1295;139930;-79
2023/01/04 23:21:36;;;;;;;13.00;7.10;;;;;;;10.46;100.00;99036.11;662768;1288;138812;-79
2023/01/04 23:36:41;;;;;;;12.90;7.80;;;;;;;10.54;100.00;99008.45;661212;1309;138681;-78
2023/01/04 23:51:44;;;;;;;49.80;17.10;;;;;;;10.38;100.00;98981.66;661061;1310;139201;-79
